Teruhou Maru No.22 — JD3202 — position and weather

sailwx.info

Track history (hours):
 
Tides and Currents Weather Stations Pressure Air Temp Water Temp Dewpoint Dewpoint Depression Visibility Wind Speed Wind Dir Waves Ship Positions

Teruhou Maru No.22

Last reported at 2015-Jan-27 13:33 UTC. Time now 2015-Jan-27 14:26 UTC.
Position N 34°40' E 135°11'.

Length 76 m; draft 4 m.

Type: Cargo ship. MMSI: 431002552.

Date/timePositionNaut miles runAvg speedWind from/ knotsBaromVisibWave heightAir tempDewpointWater temp
2015-Jan-27 13:33N 34°40' E 135°11'0 0.0
2015-Jan-27 12:33N 34°40' E 135°11'0 0.0
2015-Jan-27 11:33N 34°40' E 135°11'0 0.0
2015-Jan-27 10:33N 34°40' E 135°11'0 0.0
2015-Jan-27 09:33N 34°40' E 135°11'0 0.0
2015-Jan-27 08:33N 34°40' E 135°11'0 0.0
2015-Jan-27 07:33N 34°40' E 135°11'0 0.0
2015-Jan-27 06:33N 34°40' E 135°11'0 0.0
2015-Jan-27 05:33N 34°40' E 135°11'0 0.0
2015-Jan-27 04:33N 34°40' E 135°11'4 3.5
2015-Jan-27 03:33N 34°38' E 135°14'3 2.8
2015-Jan-27 02:33N 34°40' E 135°13'0 0.0
2015-Jan-27 01:33N 34°40' E 135°13'0 0.0
2015-Jan-27 00:33N 34°40' E 135°13'0 0.0
2015-Jan-26 23:33N 34°40' E 135°13'2 1.7
2015-Jan-26 22:33N 34°41' E 135°15'0 0.0
2015-Jan-26 21:33N 34°41' E 135°15'0 0.0
2015-Jan-26 20:33N 34°41' E 135°15'0 0.0
2015-Jan-26 19:33N 34°41' E 135°15'0 0.0
2015-Jan-26 18:33N 34°41' E 135°15'0 0.1
2015-Jan-26 17:33N 34°41' E 135°15'0 0.0
2015-Jan-26 16:33N 34°41' E 135°15'0 0.0
2015-Jan-26 15:33N 34°41' E 135°15'0 0.0
2015-Jan-26 14:33N 34°41' E 135°15'0 0.0
2015-Jan-26 13:33N 34°41' E 135°15'0 0.0
2015-Jan-26 12:33N 34°41' E 135°15'0 0.0
2015-Jan-26 11:33N 34°41' E 135°15'0 0.0
2015-Jan-26 10:33N 34°41' E 135°15'0 0.0
2015-Jan-26 09:33N 34°41' E 135°15'0 0.0
2015-Jan-26 08:33N 34°41' E 135°15'0 0.0
2015-Jan-26 07:33N 34°41' E 135°15'0 0.1
2015-Jan-26 06:33N 34°41' E 135°15'0 0.0
2015-Jan-26 05:33N 34°41' E 135°15'0 0.0
2015-Jan-26 04:33N 34°41' E 135°15'2 2.3
2015-Jan-26 03:33N 34°39' E 135°16'1111.4
2015-Jan-26 02:33N 34°28' E 135°11'1712.4
2015-Jan-26 01:09N 34°13' E 135°03'  
2015-Jan-21 05:31N 34°05' E 135°00'1612.8
2015-Jan-21 04:15N 34°21' E 134°60'912.2
2015-Jan-21 03:33N 34°29' E 135°01'8 7.6
2015-Jan-21 02:31N 34°36' E 134°57'8 0.4
2015-Jan-20 07:03N 34°41' E 134°49'11 1.7
2015-Jan-20 00:31N 34°37' E 135°01'1212.3
2015-Jan-19 23:31N 34°25' E 135°04'  
Track history (hours):
 
Tides and Currents Weather Stations Pressure Air Temp Water Temp Dewpoint Dewpoint Depression Visibility Wind Speed Wind Dir Waves Ship Positions

Teruhou Maru No.22

Last reported at 2015-Jan-27 13:33 UTC. Time now 2015-Jan-27 14:26 UTC.
Position N 34°40' E 135°11'.

Length 76 m; draft 4 m.

Type: Cargo ship. MMSI: 431002552.

Date/timePositionNaut miles runAvg speedWind from/ knotsBaromVisibWave heightAir tempDewpointWater temp
2015-Jan-27 13:33N 34°40' E 135°11'0 0.0
2015-Jan-27 12:33N 34°40' E 135°11'0 0.0
2015-Jan-27 11:33N 34°40' E 135°11'0 0.0
2015-Jan-27 10:33N 34°40' E 135°11'0 0.0
2015-Jan-27 09:33N 34°40' E 135°11'0 0.0
2015-Jan-27 08:33N 34°40' E 135°11'0 0.0
2015-Jan-27 07:33N 34°40' E 135°11'0 0.0
2015-Jan-27 06:33N 34°40' E 135°11'0 0.0
2015-Jan-27 05:33N 34°40' E 135°11'0 0.0
2015-Jan-27 04:33N 34°40' E 135°11'4 3.5
2015-Jan-27 03:33N 34°38' E 135°14'3 2.8
2015-Jan-27 02:33N 34°40' E 135°13'0 0.0
2015-Jan-27 01:33N 34°40' E 135°13'0 0.0
2015-Jan-27 00:33N 34°40' E 135°13'0 0.0
2015-Jan-26 23:33N 34°40' E 135°13'2 1.7
2015-Jan-26 22:33N 34°41' E 135°15'0 0.0
2015-Jan-26 21:33N 34°41' E 135°15'0 0.0
2015-Jan-26 20:33N 34°41' E 135°15'0 0.0
2015-Jan-26 19:33N 34°41' E 135°15'0 0.0
2015-Jan-26 18:33N 34°41' E 135°15'0 0.1
2015-Jan-26 17:33N 34°41' E 135°15'0 0.0
2015-Jan-26 16:33N 34°41' E 135°15'0 0.0
2015-Jan-26 15:33N 34°41' E 135°15'0 0.0
2015-Jan-26 14:33N 34°41' E 135°15'0 0.0
2015-Jan-26 13:33N 34°41' E 135°15'0 0.0
2015-Jan-26 12:33N 34°41' E 135°15'0 0.0
2015-Jan-26 11:33N 34°41' E 135°15'0 0.0
2015-Jan-26 10:33N 34°41' E 135°15'0 0.0
2015-Jan-26 09:33N 34°41' E 135°15'0 0.0
2015-Jan-26 08:33N 34°41' E 135°15'0 0.0
2015-Jan-26 07:33N 34°41' E 135°15'0 0.1
2015-Jan-26 06:33N 34°41' E 135°15'0 0.0
2015-Jan-26 05:33N 34°41' E 135°15'0 0.0
2015-Jan-26 04:33N 34°41' E 135°15'2 2.3
2015-Jan-26 03:33N 34°39' E 135°16'1111.4
2015-Jan-26 02:33N 34°28' E 135°11'1712.4
2015-Jan-26 01:09N 34°13' E 135°03'  
2015-Jan-21 05:31N 34°05' E 135°00'1612.8
2015-Jan-21 04:15N 34°21' E 134°60'912.2
2015-Jan-21 03:33N 34°29' E 135°01'8 7.6
2015-Jan-21 02:31N 34°36' E 134°57'8 0.4
2015-Jan-20 07:03N 34°41' E 134°49'11 1.7
2015-Jan-20 00:31N 34°37' E 135°01'1212.3
2015-Jan-19 23:31N 34°25' E 135°04'  

Dump ship's entire track history